Time,TemperatureF,DewpointF,PressureIn,WindDirection,WindDirectionDegrees,WindSpeedMPH,WindSpeedGustMPH,Humidity,HourlyPrecipIn,Conditions,Clouds,dailyrainin,SolarRadiationWatts/m^2,SoftwareType,DateUTC
2013-04-08 00:02:00,40.0,23.0,-100.00,ENE,72,2.0,6.0,50,0.00,,,0.00,0.000000,,2013-04-08 07:02:00,
2013-04-08 00:12:00,40.0,23.0,-100.00,ENE,72,2.0,6.0,50,0.00,,,0.00,0.000000,,2013-04-08 07:12:00,
2013-04-08 00:42:00,44.0,27.0,-100.00,SSW,202,7.0,12.0,51,0.00,,,0.00,0.000000,,2013-04-08 07:42:00,
2013-04-08 00:52:00,44.0,27.0,-100.00,SSW,202,7.0,12.0,51,0.00,,,0.00,0.000000,,2013-04-08 07:52:00,
2013-04-08 01:02:00,44.0,27.0,-100.00,SSW,202,7.0,12.0,51,0.00,,,0.00,0.000000,,2013-04-08 08:02:00,
2013-04-08 01:11:00,44.0,27.0,-100.00,SSW,202,7.0,12.0,51,0.00,,,0.00,0.000000,,2013-04-08 08:11:00,
2013-04-08 01:43:00,45.0,25.0,-100.00,South,175,6.0,14.0,46,0.00,,,0.00,0.000000,,2013-04-08 08:43:00,
2013-04-08 01:52:00,45.0,25.0,-100.00,South,175,6.0,14.0,46,0.00,,,0.00,0.000000,,2013-04-08 08:52:00,
2013-04-08 02:02:00,45.0,25.0,-100.00,South,175,6.0,14.0,46,0.00,,,0.00,0.000000,,2013-04-08 09:02:00,
2013-04-08 02:12:00,45.0,25.0,-100.00,South,175,6.0,14.0,46,0.00,,,0.00,0.000000,,2013-04-08 09:12:00,
2013-04-08 02:43:00,37.0,25.0,-100.00,ESE,120,3.0,16.0,61,0.00,,,0.00,0.000000,,2013-04-08 09:43:00,
2013-04-08 03:43:00,41.0,27.0,-100.00,ESE,119,8.0,15.0,58,-99.99,,,0.00,0.000000,,2013-04-08 10:43:00,
2013-04-08 03:53:00,41.0,27.0,-100.00,ESE,119,8.0,15.0,58,-99.99,,,0.00,0.000000,,2013-04-08 10:53:00,
2013-04-08 04:02:00,41.0,27.0,-100.00,ESE,119,8.0,15.0,58,-99.99,,,0.00,0.000000,,2013-04-08 11:02:00,
2013-04-08 04:12:00,41.0,27.0,-100.00,ESE,119,8.0,15.0,58,-99.99,,,0.00,0.000000,,2013-04-08 11:12:00,
2013-04-08 04:43:00,43.0,28.0,-100.00,SSE,154,12.0,17.0,55,0.00,,,0.00,0.000000,,2013-04-08 11:43:00,
2013-04-08 04:52:00,43.0,28.0,-100.00,SSE,154,12.0,17.0,55,0.00,,,0.00,0.000000,,2013-04-08 11:52:00,
2013-04-08 05:02:00,43.0,28.0,-100.00,SSE,154,12.0,17.0,55,0.00,,,0.00,0.000000,,2013-04-08 12:02:00,
2013-04-08 05:12:00,43.0,28.0,-100.00,SSE,154,12.0,17.0,55,0.00,,,0.00,0.000000,,2013-04-08 12:12:00,
2013-04-08 05:43:00,45.0,31.0,-100.00,South,186,15.0,27.0,57,0.00,,,-99.99,0.000000,,2013-04-08 12:43:00,
2013-04-08 05:52:00,45.0,31.0,-100.00,South,186,15.0,27.0,57,0.00,,,-99.99,0.000000,,2013-04-08 12:52:00,
2013-04-08 06:02:00,45.0,31.0,-100.00,South,186,15.0,27.0,57,0.00,,,-99.99,0.000000,,2013-04-08 13:02:00,
2013-04-08 06:12:00,45.0,31.0,-100.00,South,186,15.0,27.0,57,0.00,,,-99.99,0.000000,,2013-04-08 13:12:00,
2013-04-08 06:43:00,43.0,31.0,-100.00,South,176,13.0,30.0,62,0.00,,,0.00,2.000000,,2013-04-08 13:43:00,
2013-04-08 06:52:00,43.0,31.0,-100.00,South,176,13.0,30.0,62,0.00,,,0.00,2.000000,,2013-04-08 13:52:00,
2013-04-08 07:02:00,43.0,31.0,-100.00,South,176,13.0,30.0,62,0.00,,,0.00,2.000000,,2013-04-08 14:02:00,
2013-04-08 07:12:00,43.0,31.0,-100.00,South,176,13.0,30.0,62,0.00,,,0.00,2.000000,,2013-04-08 14:12:00,
2013-04-08 07:33:00,44.0,33.0,-100.00,South,179,16.0,28.0,64,0.00,,,0.00,75.000000,,2013-04-08 14:33:00,
2013-04-08 07:43:00,44.0,33.0,-100.00,South,179,16.0,28.0,64,0.00,,,0.00,75.000000,,2013-04-08 14:43:00,
2013-04-08 07:52:00,44.0,33.0,-100.00,South,179,16.0,28.0,64,0.00,,,0.00,75.000000,,2013-04-08 14:52:00,
2013-04-08 08:02:00,44.0,33.0,-100.00,South,179,16.0,28.0,64,0.00,,,0.00,75.000000,,2013-04-08 15:02:00,
2013-04-08 08:12:00,44.0,33.0,-100.00,South,179,16.0,28.0,64,0.00,,,0.00,75.000000,,2013-04-08 15:12:00,
2013-04-08 08:35:00,45.0,30.0,-100.00,South,183,15.0,30.0,55,0.00,,,0.00,282.000000,,2013-04-08 15:35:00,
2013-04-08 08:43:00,45.0,30.0,-100.00,South,183,15.0,30.0,55,0.00,,,0.00,282.000000,,2013-04-08 15:43:00,
2013-04-08 08:53:00,45.0,30.0,-100.00,South,183,15.0,30.0,55,0.00,,,0.00,282.000000,,2013-04-08 15:53:00,
2013-04-08 09:03:00,45.0,30.0,-100.00,South,183,15.0,30.0,55,0.00,,,0.00,282.000000,,2013-04-08 16:03:00,
2013-04-08 09:12:00,45.0,30.0,-100.00,South,183,15.0,30.0,55,0.00,,,0.00,282.000000,,2013-04-08 16:12:00,
2013-04-08 10:44:00,47.0,27.0,-100.00,SSW,208,27.0,49.0,46,-99.99,,,0.00,208.000000,,2013-04-08 17:44:00,
2013-04-08 10:52:00,47.0,27.0,-100.00,SSW,208,27.0,49.0,46,-99.99,,,0.00,208.000000,,2013-04-08 17:52:00,
2013-04-08 11:02:00,47.0,27.0,-100.00,SSW,208,27.0,49.0,46,-99.99,,,0.00,208.000000,,2013-04-08 18:02:00,
2013-04-08 11:11:00,47.0,27.0,-100.00,SSW,208,27.0,49.0,46,-99.99,,,0.00,208.000000,,2013-04-08 18:11:00,
2013-04-08 11:42:00,44.0,27.0,-100.00,SSW,207,26.0,47.0,51,0.00,,,0.00,362.000000,,2013-04-08 18:42:00,
2013-04-08 11:52:00,44.0,27.0,-100.00,SSW,207,26.0,47.0,51,0.00,,,0.00,362.000000,,2013-04-08 18:52:00,
2013-04-08 12:02:00,44.0,27.0,-100.00,SSW,207,26.0,47.0,51,0.00,,,0.00,362.000000,,2013-04-08 19:02:00,
2013-04-08 12:12:00,44.0,27.0,-100.00,SSW,207,26.0,47.0,51,0.00,,,0.00,362.000000,,2013-04-08 19:12:00,
2013-04-08 12:43:00,44.0,30.0,-100.00,SSW,204,27.0,51.0,57,0.02,,,0.02,359.000000,,2013-04-08 19:43:00,
2013-04-08 12:52:00,44.0,30.0,-100.00,SSW,204,27.0,51.0,57,0.02,,,0.02,359.000000,,2013-04-08 19:52:00,
2013-04-08 13:02:00,44.0,30.0,-100.00,SSW,204,27.0,51.0,57,0.02,,,0.02,359.000000,,2013-04-08 20:02:00,
2013-04-08 13:12:00,44.0,30.0,-100.00,SSW,204,27.0,51.0,57,0.02,,,0.02,359.000000,,2013-04-08 20:12:00,
2013-04-08 13:43:00,34.0,31.0,-100.00,WSW,252,18.0,43.0,87,0.03,,,0.05,129.000000,,2013-04-08 20:43:00,
2013-04-08 13:52:00,34.0,31.0,-100.00,WSW,252,18.0,43.0,87,0.03,,,0.05,129.000000,,2013-04-08 20:52:00,
2013-04-08 14:02:00,34.0,31.0,-100.00,WSW,252,18.0,43.0,87,0.03,,,0.05,129.000000,,2013-04-08 21:02:00,
2013-04-08 14:12:00,34.0,31.0,-100.00,WSW,252,18.0,43.0,87,0.03,,,0.05,129.000000,,2013-04-08 21:12:00,
2013-04-08 14:43:00,36.0,28.0,-100.00,WSW,247,19.0,41.0,73,0.02,,,0.07,342.000000,,2013-04-08 21:43:00,
2013-04-08 14:53:00,36.0,28.0,-100.00,WSW,247,19.0,41.0,73,0.02,,,0.07,342.000000,,2013-04-08 21:53:00,
2013-04-08 15:02:00,36.0,28.0,-100.00,WSW,247,19.0,41.0,73,0.02,,,0.07,342.000000,,2013-04-08 22:02:00,
2013-04-08 15:12:00,36.0,28.0,-100.00,WSW,247,19.0,41.0,73,0.02,,,0.07,342.000000,,2013-04-08 22:12:00,
2013-04-08 15:43:00,43.0,22.0,-100.00,WSW,246,17.0,33.0,42,0.00,,,0.07,661.000000,,2013-04-08 22:43:00,
2013-04-08 15:53:00,43.0,22.0,-100.00,WSW,246,17.0,33.0,42,0.00,,,0.07,661.000000,,2013-04-08 22:53:00,
2013-04-08 16:02:00,43.0,22.0,-100.00,WSW,246,17.0,33.0,42,0.00,,,0.07,661.000000,,2013-04-08 23:02:00,
2013-04-08 16:12:00,43.0,22.0,-100.00,WSW,246,17.0,33.0,42,0.00,,,0.07,661.000000,,2013-04-08 23:12:00,
2013-04-08 16:43:00,44.0,22.0,-100.00,West,262,13.0,36.0,42,0.00,,,0.07,643.000000,,2013-04-08 23:43:00,
2013-04-08 16:52:00,44.0,22.0,-100.00,West,262,13.0,36.0,42,0.00,,,0.07,643.000000,,2013-04-08 23:52:00,
2013-04-08 17:02:00,44.0,22.0,-100.00,West,262,13.0,36.0,42,0.00,,,0.07,643.000000,,2013-04-09 00:02:00,
2013-04-08 17:12:00,44.0,22.0,-100.00,West,262,13.0,36.0,42,0.00,,,0.07,643.000000,,2013-04-09 00:12:00,
2013-04-08 17:42:00,43.0,17.0,-100.00,West,278,16.0,27.0,34,0.00,,,0.07,431.000000,,2013-04-09 00:42:00,
2013-04-08 17:52:00,43.0,17.0,-100.00,West,278,16.0,27.0,34,0.00,,,0.07,431.000000,,2013-04-09 00:52:00,
2013-04-08 18:02:00,43.0,17.0,-100.00,West,278,16.0,27.0,34,0.00,,,0.07,431.000000,,2013-04-09 01:02:00,
2013-04-08 18:12:00,43.0,17.0,-100.00,West,278,16.0,27.0,34,0.00,,,0.07,431.000000,,2013-04-09 01:12:00,
2013-04-08 18:42:00,41.0,18.0,-100.00,West,276,13.0,25.0,39,0.00,,,0.07,213.000000,,2013-04-09 01:42:00,
2013-04-08 18:52:00,41.0,18.0,-100.00,West,276,13.0,25.0,39,0.00,,,0.07,213.000000,,2013-04-09 01:52:00,
2013-04-08 19:02:00,41.0,18.0,-100.00,West,276,13.0,25.0,39,0.00,,,0.07,213.000000,,2013-04-09 02:02:00,
2013-04-08 19:12:00,41.0,18.0,-100.00,West,276,13.0,25.0,39,0.00,,,0.07,213.000000,,2013-04-09 02:12:00,
2013-04-08 19:44:00,37.0,21.0,-100.00,WNW,293,11.0,20.0,53,0.00,,,0.07,30.000000,,2013-04-09 02:44:00,
2013-04-08 19:52:00,37.0,21.0,-100.00,WNW,293,11.0,20.0,53,0.00,,,0.07,30.000000,,2013-04-09 02:52:00,
2013-04-08 20:02:00,37.0,21.0,-100.00,WNW,293,11.0,20.0,53,0.00,,,0.07,30.000000,,2013-04-09 03:02:00,
2013-04-08 20:12:00,37.0,21.0,-100.00,WNW,293,11.0,20.0,53,0.00,,,0.07,30.000000,,2013-04-09 03:12:00,
2013-04-08 20:43:00,34.0,23.0,-100.00,WNW,286,10.0,21.0,65,0.00,,,0.07,0.000000,,2013-04-09 03:43:00,
2013-04-08 20:53:00,34.0,23.0,-100.00,WNW,286,10.0,21.0,65,0.00,,,0.07,0.000000,,2013-04-09 03:53:00,
2013-04-08 21:02:00,34.0,23.0,-100.00,WNW,286,10.0,21.0,65,0.00,,,0.07,0.000000,,2013-04-09 04:02:00,
2013-04-08 21:12:00,34.0,23.0,-100.00,WNW,286,10.0,21.0,65,0.00,,,0.07,0.000000,,2013-04-09 04:12:00,
2013-04-08 21:43:00,31.0,25.0,-100.00,WNW,300,7.0,16.0,79,0.00,,,0.07,0.000000,,2013-04-09 04:43:00,
2013-04-08 21:53:00,31.0,25.0,-100.00,WNW,300,7.0,16.0,79,0.00,,,0.07,0.000000,,2013-04-09 04:53:00,
2013-04-08 22:02:00,31.0,25.0,-100.00,WNW,300,7.0,16.0,79,0.00,,,0.07,0.000000,,2013-04-09 05:02:00,
2013-04-08 22:12:00,31.0,25.0,-100.00,WNW,300,7.0,16.0,79,0.00,,,0.07,0.000000,,2013-04-09 05:12:00,
2013-04-08 22:32:00,31.0,28.0,-100.00,NW,319,9.0,15.0,87,0.00,,,0.07,0.000000,,2013-04-09 05:32:00,
2013-04-08 22:43:00,31.0,28.0,-100.00,NW,319,9.0,15.0,87,0.00,,,0.07,0.000000,,2013-04-09 05:43:00,
2013-04-08 22:52:00,31.0,28.0,-100.00,NW,319,9.0,15.0,87,0.00,,,0.07,0.000000,,2013-04-09 05:52:00,
2013-04-08 23:02:00,31.0,28.0,-100.00,NW,319,9.0,15.0,87,0.00,,,0.07,0.000000,,2013-04-09 06:02:00,
2013-04-08 23:12:00,31.0,28.0,-100.00,NW,319,9.0,15.0,87,0.00,,,0.07,0.000000,,2013-04-09 06:12:00,
2013-04-08 23:32:00,31.0,28.0,-100.00,NNW,342,12.0,17.0,88,0.00,,,0.07,0.000000,,2013-04-09 06:32:00,
2013-04-08 23:42:00,31.0,28.0,-100.00,NNW,342,12.0,17.0,88,0.00,,,0.07,0.000000,,2013-04-09 06:42:00,
2013-04-08 23:52:00,31.0,28.0,-100.00,NNW,342,12.0,17.0,88,0.00,,,0.07,0.000000,,2013-04-09 06:52:00,